Luna — WDA6547 — position and weather

sailwx.info

Track history (hours):
 
Tides and Currents Weather Stations Pressure Air Temp Water Temp Dewpoint Dewpoint Depression Visibility Wind Speed Wind Dir Waves Ship Positions

Luna

Owner: RIDENOUR, ROBERT J, Seattle, WA. More information available from US FCC via Universal Licensing System and Coast Guard Vessel Documentation Center.

Last reported at 2017-Oct-17 19:03 UTC. Time now 2017-Oct-19 14:41 UTC.
Position N 33°59' W 118°49'.

Length 14 m.

Type: Pleasure craft. MMSI: 366833560.

Date/timePositionNaut miles runAvg speedWind from/ knotsBaromVisibWave heightAir tempDewpointWater temp
2017-Oct-17 19:03N 33°59' W 118°49'1 6.3
2017-Oct-17 18:55N 33°59' W 118°50'3 6.8
2017-Oct-17 18:27N 33°59' W 118°54'6 5.9
2017-Oct-17 17:29N 34°00' W 119°01'4 5.9
2017-Oct-17 16:53N 34°01' W 119°05'3 6.6
2017-Oct-17 16:29N 34°02' W 119°08'3 6.8
2017-Oct-17 16:00N 34°04' W 119°11'5 6.5
2017-Oct-17 15:15N 34°08' W 119°14'2 4.9
2017-Oct-17 14:54N 34°10' W 119°13'2 0.1
2017-Oct-16 16:50N 34°11' W 119°15'2 6.7
2017-Oct-16 16:28N 34°13' W 119°16'2 0.6
2017-Oct-16 13:28N 34°15' W 119°16'0 0.0
2017-Oct-16 12:07N 34°15' W 119°16'0 0.0
2017-Oct-16 10:46N 34°15' W 119°16'0 0.0
2017-Oct-16 10:25N 34°15' W 119°16'0 0.0
2017-Oct-16 09:52N 34°15' W 119°16'0 0.0
2017-Oct-16 09:16N 34°15' W 119°16'0 0.0
2017-Oct-16 06:55N 34°15' W 119°16'0 0.0
2017-Oct-16 06:16N 34°15' W 119°16'0 0.0
2017-Oct-16 04:16N 34°15' W 119°16'0 0.0
2017-Oct-15 23:37N 34°15' W 119°16'0 0.0
2017-Oct-15 23:13N 34°15' W 119°16'0 0.0
2017-Oct-15 21:49N 34°15' W 119°16'0 0.0
2017-Oct-15 20:04N 34°15' W 119°16'0 0.0
2017-Oct-15 16:38N 34°15' W 119°16'0 0.0
2017-Oct-15 16:25N 34°15' W 119°16'0 0.0
2017-Oct-15 13:22N 34°15' W 119°16'0 0.0
2017-Oct-15 06:25N 34°15' W 119°16'0 0.0
2017-Oct-15 04:01N 34°15' W 119°16'0 0.0
2017-Oct-15 03:58N 34°15' W 119°16'0 0.0
2017-Oct-15 03:04N 34°15' W 119°16'0 0.0
2017-Oct-15 02:37N 34°15' W 119°16'0 0.0
2017-Oct-15 02:22N 34°15' W 119°16'0 0.0
2017-Oct-15 01:58N 34°15' W 119°16'0 0.0
2017-Oct-15 01:28N 34°15' W 119°16'0 0.0
2017-Oct-14 23:31N 34°15' W 119°16'0 0.0
2017-Oct-14 19:49N 34°15' W 119°16'0 0.1
2017-Oct-14 19:25N 34°15' W 119°16'0 0.0
2017-Oct-14 18:52N 34°15' W 119°16'0 0.0
2017-Oct-14 17:43N 34°15' W 119°16'0 0.0
2017-Oct-14 17:25N 34°15' W 119°16'0 0.0
2017-Oct-14 16:52N 34°15' W 119°16'0 0.5
2017-Oct-14 16:29N 34°14' W 119°16'0 0.5
2017-Oct-14 15:52N 34°15' W 119°16'0 0.0
2017-Oct-14 15:28N 34°15' W 119°16'0 0.0
2017-Oct-14 14:58N 34°15' W 119°16'0 0.0
2017-Oct-14 14:28N 34°15' W 119°16'0 0.0
2017-Oct-14 13:22N 34°15' W 119°16'0 0.0
2017-Oct-14 12:52N 34°15' W 119°16'0 0.0
2017-Oct-14 12:28N 34°15' W 119°16'0 0.0
2017-Oct-14 11:58N 34°15' W 119°16'0 0.0
2017-Oct-14 11:04N 34°15' W 119°16'0 0.0
2017-Oct-14 10:34N 34°15' W 119°16'0 0.0
2017-Oct-14 10:19N 34°15' W 119°16'0 0.0
2017-Oct-14 09:58N 34°15' W 119°16'0 0.0
2017-Oct-14 09:28N 34°15' W 119°16'0 0.0
2017-Oct-14 08:52N 34°15' W 119°16'0 0.0
2017-Oct-14 08:22N 34°15' W 119°16'0 0.0
2017-Oct-14 07:49N 34°15' W 119°16'0 0.0
2017-Oct-14 07:22N 34°15' W 119°16'0 0.0
2017-Oct-14 06:49N 34°15' W 119°16'0 0.0
2017-Oct-14 06:25N 34°15' W 119°16'0 0.0
2017-Oct-14 05:52N 34°15' W 119°16'0 0.0
2017-Oct-14 05:28N 34°15' W 119°16'0 0.0
2017-Oct-14 04:52N 34°15' W 119°16'0 0.0
2017-Oct-14 04:28N 34°15' W 119°16'0 0.0
2017-Oct-14 02:55N 34°15' W 119°16'0 0.0
2017-Oct-14 02:16N 34°15' W 119°16'0 0.0
2017-Oct-13 22:40N 34°15' W 119°16'0 0.0
2017-Oct-13 22:19N 34°15' W 119°16'0 0.0
2017-Oct-13 21:40N 34°15' W 119°16'0 0.0
2017-Oct-13 21:19N 34°15' W 119°16'0 0.0
2017-Oct-13 20:50N 34°15' W 119°16'0 0.0
2017-Oct-13 20:29N 34°15' W 119°16'0 0.0
2017-Oct-13 19:50N 34°15' W 119°16'0 0.0
2017-Oct-13 19:23N 34°15' W 119°16'0 0.0
2017-Oct-13 18:53N 34°15' W 119°16'0 0.0
2017-Oct-13 18:23N 34°15' W 119°16'0 0.0
2017-Oct-13 17:56N 34°15' W 119°16'0 0.0
2017-Oct-13 17:05N 34°15' W 119°16'0 0.1
2017-Oct-13 16:59N 34°15' W 119°16'0 0.0
2017-Oct-13 16:29N 34°15' W 119°16'0 0.0
2017-Oct-13 15:59N 34°15' W 119°16'0 0.0
2017-Oct-13 15:29N 34°15' W 119°16'0 0.0
2017-Oct-13 14:53N 34°15' W 119°16'0 0.0
2017-Oct-13 14:20N 34°15' W 119°16'0 0.0
2017-Oct-13 13:44N 34°15' W 119°16'0 0.0
2017-Oct-13 13:29N 34°15' W 119°16'0 0.0
2017-Oct-13 12:56N 34°15' W 119°16'0 0.0
2017-Oct-13 12:29N 34°15' W 119°16'0 0.0
2017-Oct-13 11:59N 34°15' W 119°16'0 0.0
2017-Oct-13 11:29N 34°15' W 119°16'0 0.0
2017-Oct-13 10:38N 34°15' W 119°16'0 0.0
2017-Oct-13 10:20N 34°15' W 119°16'0 0.0
2017-Oct-13 09:59N 34°15' W 119°16'0 0.0
2017-Oct-13 09:29N 34°15' W 119°16'0 0.0
2017-Oct-13 08:56N 34°15' W 119°16'0 0.0
2017-Oct-13 08:29N 34°15' W 119°16'0 0.0
2017-Oct-13 07:38N 34°15' W 119°16'0 0.0
2017-Oct-13 07:14N 34°15' W 119°16'0 0.0
2017-Oct-13 06:56N 34°15' W 119°16'0 0.0
2017-Oct-13 06:29N 34°15' W 119°16'0 0.0
2017-Oct-13 05:56N 34°15' W 119°16'0 0.0
2017-Oct-13 05:14N 34°15' W 119°16'0 0.0
2017-Oct-13 04:44N 34°15' W 119°16'0 0.0
2017-Oct-13 04:29N 34°15' W 119°16'0 0.0
2017-Oct-13 03:59N 34°15' W 119°16'0 0.0
2017-Oct-13 03:29N 34°15' W 119°16'0 0.0
2017-Oct-13 02:53N 34°15' W 119°16'0 0.0
2017-Oct-13 02:26N 34°15' W 119°16'0 0.0
2017-Oct-13 01:59N 34°15' W 119°16'0 0.0
2017-Oct-13 00:23N 34°15' W 119°16'0 0.0
2017-Oct-12 23:56N 34°15' W 119°16'0 0.0
2017-Oct-12 23:23N 34°15' W 119°16'0 0.0
2017-Oct-12 22:59N 34°15' W 119°16'0 0.1
2017-Oct-12 22:13N 34°15' W 119°16'0 1.1
2017-Oct-12 21:58N 34°15' W 119°16'8 6.5
2017-Oct-12 20:45N 34°18' W 119°25'2 6.8
2017-Oct-12 20:29N 34°19' W 119°27'5 6.6
2017-Oct-12 19:48N 34°21' W 119°32'2 7.0
2017-Oct-12 19:29N 34°22' W 119°34'7 0.3
2017-Oct-11 20:15N 34°24' W 119°42'1 2.0
2017-Oct-11 19:59N 34°24' W 119°41'3 6.6
2017-Oct-11 19:29N 34°23' W 119°45'4 7.1
2017-Oct-11 18:53N 34°24' W 119°50'3 7.1
2017-Oct-11 18:27N 34°24' W 119°54'3 6.8
2017-Oct-11 17:59N 34°24' W 119°58'4 6.9
2017-Oct-11 17:27N 34°25' W 120°02'5 7.0
2017-Oct-11 16:46N 34°25' W 120°08'16 0.9
2017-Oct-11 00:00N 34°27' W 120°27'2 4.3
2017-Oct-10 23:29N 34°27' W 120°30'3 6.4
2017-Oct-10 23:00N 34°28' W 120°33'3 6.3
2017-Oct-10 22:30N 34°30' W 120°36'3 6.0
2017-Oct-10 21:58N 34°32' W 120°39'8 6.4
2017-Oct-10 20:41N 34°39' W 120°44'1 6.7
2017-Oct-10 20:30N 34°40' W 120°44'3 6.5
2017-Oct-10 20:00N 34°44' W 120°45'3 6.8
2017-Oct-10 19:30N 34°47' W 120°47'3 6.8
2017-Oct-10 19:00N 34°50' W 120°48'3 6.9
2017-Oct-10 18:30N 34°53' W 120°49'3 7.0
2017-Oct-10 18:00N 34°57' W 120°50'3 6.4
2017-Oct-10 17:30N 34°60' W 120°51'8 6.4
2017-Oct-10 16:20N 35°07' W 120°54'2 6.4
2017-Oct-10 15:59N 35°09' W 120°55'6 6.1
2017-Oct-10 14:59N 35°15' W 120°56'  
Track history (hours):
 
Tides and Currents Weather Stations Pressure Air Temp Water Temp Dewpoint Dewpoint Depression Visibility Wind Speed Wind Dir Waves Ship Positions

Luna

Owner: RIDENOUR, ROBERT J, Seattle, WA. More information available from US FCC via Universal Licensing System and Coast Guard Vessel Documentation Center.

Last reported at 2017-Oct-17 19:03 UTC. Time now 2017-Oct-19 14:41 UTC.
Position N 33°59' W 118°49'.

Length 14 m.

Type: Pleasure craft. MMSI: 366833560.

Date/timePositionNaut miles runAvg speedWind from/ knotsBaromVisibWave heightAir tempDewpointWater temp
2017-Oct-17 19:03N 33°59' W 118°49'1 6.3
2017-Oct-17 18:55N 33°59' W 118°50'3 6.8
2017-Oct-17 18:27N 33°59' W 118°54'6 5.9
2017-Oct-17 17:29N 34°00' W 119°01'4 5.9
2017-Oct-17 16:53N 34°01' W 119°05'3 6.6
2017-Oct-17 16:29N 34°02' W 119°08'3 6.8
2017-Oct-17 16:00N 34°04' W 119°11'5 6.5
2017-Oct-17 15:15N 34°08' W 119°14'2 4.9
2017-Oct-17 14:54N 34°10' W 119°13'2 0.1
2017-Oct-16 16:50N 34°11' W 119°15'2 6.7
2017-Oct-16 16:28N 34°13' W 119°16'2 0.6
2017-Oct-16 13:28N 34°15' W 119°16'0 0.0
2017-Oct-16 12:07N 34°15' W 119°16'0 0.0
2017-Oct-16 10:46N 34°15' W 119°16'0 0.0
2017-Oct-16 10:25N 34°15' W 119°16'0 0.0
2017-Oct-16 09:52N 34°15' W 119°16'0 0.0
2017-Oct-16 09:16N 34°15' W 119°16'0 0.0
2017-Oct-16 06:55N 34°15' W 119°16'0 0.0
2017-Oct-16 06:16N 34°15' W 119°16'0 0.0
2017-Oct-16 04:16N 34°15' W 119°16'0 0.0
2017-Oct-15 23:37N 34°15' W 119°16'0 0.0
2017-Oct-15 23:13N 34°15' W 119°16'0 0.0
2017-Oct-15 21:49N 34°15' W 119°16'0 0.0
2017-Oct-15 20:04N 34°15' W 119°16'0 0.0
2017-Oct-15 16:38N 34°15' W 119°16'0 0.0
2017-Oct-15 16:25N 34°15' W 119°16'0 0.0
2017-Oct-15 13:22N 34°15' W 119°16'0 0.0
2017-Oct-15 06:25N 34°15' W 119°16'0 0.0
2017-Oct-15 04:01N 34°15' W 119°16'0 0.0
2017-Oct-15 03:58N 34°15' W 119°16'0 0.0
2017-Oct-15 03:04N 34°15' W 119°16'0 0.0
2017-Oct-15 02:37N 34°15' W 119°16'0 0.0
2017-Oct-15 02:22N 34°15' W 119°16'0 0.0
2017-Oct-15 01:58N 34°15' W 119°16'0 0.0
2017-Oct-15 01:28N 34°15' W 119°16'0 0.0
2017-Oct-14 23:31N 34°15' W 119°16'0 0.0
2017-Oct-14 19:49N 34°15' W 119°16'0 0.1
2017-Oct-14 19:25N 34°15' W 119°16'0 0.0
2017-Oct-14 18:52N 34°15' W 119°16'0 0.0
2017-Oct-14 17:43N 34°15' W 119°16'0 0.0
2017-Oct-14 17:25N 34°15' W 119°16'0 0.0
2017-Oct-14 16:52N 34°15' W 119°16'0 0.5
2017-Oct-14 16:29N 34°14' W 119°16'0 0.5
2017-Oct-14 15:52N 34°15' W 119°16'0 0.0
2017-Oct-14 15:28N 34°15' W 119°16'0 0.0
2017-Oct-14 14:58N 34°15' W 119°16'0 0.0
2017-Oct-14 14:28N 34°15' W 119°16'0 0.0
2017-Oct-14 13:22N 34°15' W 119°16'0 0.0
2017-Oct-14 12:52N 34°15' W 119°16'0 0.0
2017-Oct-14 12:28N 34°15' W 119°16'0 0.0
2017-Oct-14 11:58N 34°15' W 119°16'0 0.0
2017-Oct-14 11:04N 34°15' W 119°16'0 0.0
2017-Oct-14 10:34N 34°15' W 119°16'0 0.0
2017-Oct-14 10:19N 34°15' W 119°16'0 0.0
2017-Oct-14 09:58N 34°15' W 119°16'0 0.0
2017-Oct-14 09:28N 34°15' W 119°16'0 0.0
2017-Oct-14 08:52N 34°15' W 119°16'0 0.0
2017-Oct-14 08:22N 34°15' W 119°16'0 0.0
2017-Oct-14 07:49N 34°15' W 119°16'0 0.0
2017-Oct-14 07:22N 34°15' W 119°16'0 0.0
2017-Oct-14 06:49N 34°15' W 119°16'0 0.0
2017-Oct-14 06:25N 34°15' W 119°16'0 0.0
2017-Oct-14 05:52N 34°15' W 119°16'0 0.0
2017-Oct-14 05:28N 34°15' W 119°16'0 0.0
2017-Oct-14 04:52N 34°15' W 119°16'0 0.0
2017-Oct-14 04:28N 34°15' W 119°16'0 0.0
2017-Oct-14 02:55N 34°15' W 119°16'0 0.0
2017-Oct-14 02:16N 34°15' W 119°16'0 0.0
2017-Oct-13 22:40N 34°15' W 119°16'0 0.0
2017-Oct-13 22:19N 34°15' W 119°16'0 0.0
2017-Oct-13 21:40N 34°15' W 119°16'0 0.0
2017-Oct-13 21:19N 34°15' W 119°16'0 0.0
2017-Oct-13 20:50N 34°15' W 119°16'0 0.0
2017-Oct-13 20:29N 34°15' W 119°16'0 0.0
2017-Oct-13 19:50N 34°15' W 119°16'0 0.0
2017-Oct-13 19:23N 34°15' W 119°16'0 0.0
2017-Oct-13 18:53N 34°15' W 119°16'0 0.0
2017-Oct-13 18:23N 34°15' W 119°16'0 0.0
2017-Oct-13 17:56N 34°15' W 119°16'0 0.0
2017-Oct-13 17:05N 34°15' W 119°16'0 0.1
2017-Oct-13 16:59N 34°15' W 119°16'0 0.0
2017-Oct-13 16:29N 34°15' W 119°16'0 0.0
2017-Oct-13 15:59N 34°15' W 119°16'0 0.0
2017-Oct-13 15:29N 34°15' W 119°16'0 0.0
2017-Oct-13 14:53N 34°15' W 119°16'0 0.0
2017-Oct-13 14:20N 34°15' W 119°16'0 0.0
2017-Oct-13 13:44N 34°15' W 119°16'0 0.0
2017-Oct-13 13:29N 34°15' W 119°16'0 0.0
2017-Oct-13 12:56N 34°15' W 119°16'0 0.0
2017-Oct-13 12:29N 34°15' W 119°16'0 0.0
2017-Oct-13 11:59N 34°15' W 119°16'0 0.0
2017-Oct-13 11:29N 34°15' W 119°16'0 0.0
2017-Oct-13 10:38N 34°15' W 119°16'0 0.0
2017-Oct-13 10:20N 34°15' W 119°16'0 0.0
2017-Oct-13 09:59N 34°15' W 119°16'0 0.0
2017-Oct-13 09:29N 34°15' W 119°16'0 0.0
2017-Oct-13 08:56N 34°15' W 119°16'0 0.0
2017-Oct-13 08:29N 34°15' W 119°16'0 0.0
2017-Oct-13 07:38N 34°15' W 119°16'0 0.0
2017-Oct-13 07:14N 34°15' W 119°16'0 0.0
2017-Oct-13 06:56N 34°15' W 119°16'0 0.0
2017-Oct-13 06:29N 34°15' W 119°16'0 0.0
2017-Oct-13 05:56N 34°15' W 119°16'0 0.0
2017-Oct-13 05:14N 34°15' W 119°16'0 0.0
2017-Oct-13 04:44N 34°15' W 119°16'0 0.0
2017-Oct-13 04:29N 34°15' W 119°16'0 0.0
2017-Oct-13 03:59N 34°15' W 119°16'0 0.0
2017-Oct-13 03:29N 34°15' W 119°16'0 0.0
2017-Oct-13 02:53N 34°15' W 119°16'0 0.0
2017-Oct-13 02:26N 34°15' W 119°16'0 0.0
2017-Oct-13 01:59N 34°15' W 119°16'0 0.0
2017-Oct-13 00:23N 34°15' W 119°16'0 0.0
2017-Oct-12 23:56N 34°15' W 119°16'0 0.0
2017-Oct-12 23:23N 34°15' W 119°16'0 0.0
2017-Oct-12 22:59N 34°15' W 119°16'0 0.1
2017-Oct-12 22:13N 34°15' W 119°16'0 1.1
2017-Oct-12 21:58N 34°15' W 119°16'8 6.5
2017-Oct-12 20:45N 34°18' W 119°25'2 6.8
2017-Oct-12 20:29N 34°19' W 119°27'5 6.6
2017-Oct-12 19:48N 34°21' W 119°32'2 7.0
2017-Oct-12 19:29N 34°22' W 119°34'7 0.3
2017-Oct-11 20:15N 34°24' W 119°42'1 2.0
2017-Oct-11 19:59N 34°24' W 119°41'3 6.6
2017-Oct-11 19:29N 34°23' W 119°45'4 7.1
2017-Oct-11 18:53N 34°24' W 119°50'3 7.1
2017-Oct-11 18:27N 34°24' W 119°54'3 6.8
2017-Oct-11 17:59N 34°24' W 119°58'4 6.9
2017-Oct-11 17:27N 34°25' W 120°02'5 7.0
2017-Oct-11 16:46N 34°25' W 120°08'16 0.9
2017-Oct-11 00:00N 34°27' W 120°27'2 4.3
2017-Oct-10 23:29N 34°27' W 120°30'3 6.4
2017-Oct-10 23:00N 34°28' W 120°33'3 6.3
2017-Oct-10 22:30N 34°30' W 120°36'3 6.0
2017-Oct-10 21:58N 34°32' W 120°39'8 6.4
2017-Oct-10 20:41N 34°39' W 120°44'1 6.7
2017-Oct-10 20:30N 34°40' W 120°44'3 6.5
2017-Oct-10 20:00N 34°44' W 120°45'3 6.8
2017-Oct-10 19:30N 34°47' W 120°47'3 6.8
2017-Oct-10 19:00N 34°50' W 120°48'3 6.9
2017-Oct-10 18:30N 34°53' W 120°49'3 7.0
2017-Oct-10 18:00N 34°57' W 120°50'3 6.4
2017-Oct-10 17:30N 34°60' W 120°51'8 6.4
2017-Oct-10 16:20N 35°07' W 120°54'2 6.4
2017-Oct-10 15:59N 35°09' W 120°55'6 6.1
2017-Oct-10 14:59N 35°15' W 120°56'  

Dump ship's entire track history